Time;durP1;ratioP1;P1;durP2;ratioP2;P2;SDS_P1;SDS_P2;PMS_P1;PMS_P2;Temp;Humidity;BMP_temperature;BMP_pressure;BME280_temperature;BME280_humidity;BME280_pressure;Samples;Min_cycle;Max_cycle;Signal;HPM_P1;HPM_P2
2021/12/20 00:02:25;;;;;;;0.45;0.45;;;;;;;;;;5043756;28;20395;-80
2021/12/20 00:04:52;;;;;;;1.27;0.52;;;;;;;;;;5041806;28;20060;-79
2021/12/20 00:07:19;;;;;;;0.20;0.20;;;;;;;;;;5029160;28;20084;-79
2021/12/20 00:09:45;;;;;;;0.20;0.20;;;;;;;;;;5027695;28;20034;-78
2021/12/20 00:12:11;;;;;;;0.10;0.10;;;;;;;;;;5040398;28;20500;-77
2021/12/20 00:14:37;;;;;;;0.20;0.20;;;;;;;;;;5046291;28;20084;-78
2021/12/20 00:17:03;;;;;;;0.15;0.15;;;;;;;;;;5044818;28;20329;-78
2021/12/20 00:19:30;;;;;;;0.32;0.32;;;;;;;;;;5042959;28;20025;-78
2021/12/20 00:21:56;;;;;;;0.10;0.10;;;;;;;;;;5045982;28;20033;-78
2021/12/20 00:24:22;;;;;;;0.20;0.20;;;;;;;;;;5038689;28;20067;-78
2021/12/20 00:26:48;;;;;;;0.20;0.20;;;;;;;;;;5045933;28;20029;-78
2021/12/20 00:29:14;;;;;;;0.20;0.20;;;;;;;;;;5040332;28;20036;-79
2021/12/20 00:31:40;;;;;;;0.82;0.47;;;;;;;;;;5038971;28;20033;-79
2021/12/20 00:34:06;;;;;;;0.20;0.20;;;;;;;;;;5040838;28;20039;-79
2021/12/20 00:36:32;;;;;;;0.20;0.20;;;;;;;;;;5041458;28;20028;-79
2021/12/20 00:41:43;;;;;;;0.25;0.25;;;;;;;;;;5040628;28;20063;-78
2021/12/20 00:44:09;;;;;;;0.30;0.30;;;;;;;;;;5040078;28;20049;-78
2021/12/20 00:46:35;;;;;;;0.50;0.50;;;;;;;;;;5025341;28;20095;-79
2021/12/20 00:49:01;;;;;;;0.30;0.30;;;;;;;;;;5044406;28;20033;-78
2021/12/20 00:51:27;;;;;;;0.40;0.40;;;;;;;;;;5044956;28;20025;-79
2021/12/20 00:53:53;;;;;;;0.28;0.28;;;;;;;;;;5039458;28;20039;-79
2021/12/20 00:56:19;;;;;;;0.65;0.65;;;;;;;;;;5040378;28;20040;-78
2021/12/20 00:58:45;;;;;;;0.20;0.20;;;;;;;;;;5039860;28;20040;-79
2021/12/20 01:01:12;;;;;;;0.40;0.40;;;;;;;;;;5040238;28;20488;-80
2021/12/20 01:03:38;;;;;;;0.40;0.40;;;;;;;;;;5040711;28;20124;-81
2021/12/20 01:06:04;;;;;;;0.20;0.20;;;;;;;;;;5039675;28;20502;-82
2021/12/20 01:08:34;;;;;;;1.00;0.60;;;;;;;;;;5038543;28;20410;-82
2021/12/20 01:11:01;;;;;;;0.30;0.30;;;;;;;;;;5036604;28;20139;-82
2021/12/20 01:13:29;;;;;;;0.20;0.20;;;;;;;;;;5038986;28;20087;-82
2021/12/20 01:15:59;;;;;;;0.35;0.35;;;;;;;;;;5039622;28;20021;-82
2021/12/20 01:18:25;;;;;;;0.10;0.10;;;;;;;;;;5039568;28;20031;-82
2021/12/20 01:20:51;;;;;;;0.33;0.33;;;;;;;;;;5038746;28;20021;-82
2021/12/20 01:23:18;;;;;;;0.20;0.20;;;;;;;;;;5039528;28;20032;-82
2021/12/20 01:25:44;;;;;;;0.40;0.40;;;;;;;;;;5039307;28;20123;-82
2021/12/20 01:28:11;;;;;;;1.35;0.68;;;;;;;;;;5042106;28;20025;-82
2021/12/20 01:30:38;;;;;;;0.30;0.30;;;;;;;;;;5043561;28;20020;-81
2021/12/20 01:33:07;;;;;;;;;;;;;;;;;;5039849;28;20443;-81
2021/12/20 01:35:34;;;;;;;0.10;0.10;;;;;;;;;;5045409;28;19919;-81
2021/12/20 01:38:00;;;;;;;0.10;0.10;;;;;;;;;;5025202;28;20491;-81
2021/12/20 01:40:26;;;;;;;0.10;0.10;;;;;;;;;;5041533;28;20029;-81
2021/12/20 01:42:55;;;;;;;0.43;0.43;;;;;;;;;;5027269;28;20059;-82
2021/12/20 01:45:23;;;;;;;0.20;0.20;;;;;;;;;;5048712;28;20040;-81
2021/12/20 01:47:53;;;;;;;0.10;0.10;;;;;;;;;;5056511;28;20028;-83
2021/12/20 01:50:35;;;;;;;0.35;0.35;;;;;;;;;;5047362;28;20526;-82
2021/12/20 01:53:01;;;;;;;0.45;0.45;;;;;;;;;;5043066;28;20036;-80
2021/12/20 01:55:27;;;;;;;0.10;0.10;;;;;;;;;;5045191;28;20029;-82
2021/12/20 01:57:53;;;;;;;0.43;0.43;;;;;;;;;;5049542;28;20079;-83
2021/12/20 02:00:21;;;;;;;0.20;0.20;;;;;;;;;;5046444;28;20082;-82
2021/12/20 02:02:49;;;;;;;0.20;0.20;;;;;;;;;;5038636;28;20781;-82
2021/12/20 02:05:21;;;;;;;0.38;0.38;;;;;;;;;;5044986;28;20037;-82
2021/12/20 02:08:13;;;;;;;0.10;0.10;;;;;;;;;;5047389;28;20016;-79
2021/12/20 02:10:39;;;;;;;0.10;0.10;;;;;;;;;;5043024;28;20037;-83
2021/12/20 02:13:05;;;;;;;0.40;0.40;;;;;;;;;;5042514;28;20033;-82
2021/12/20 02:15:31;;;;;;;0.28;0.28;;;;;;;;;;5042610;28;20044;-82
2021/12/20 02:17:57;;;;;;;0.20;0.20;;;;;;;;;;5041762;28;20488;-83
2021/12/20 02:20:25;;;;;;;0.20;0.20;;;;;;;;;;5042248;28;20684;-81
2021/12/20 02:22:53;;;;;;;0.40;0.40;;;;;;;;;;5047069;28;20031;-82
2021/12/20 02:25:19;;;;;;;0.10;0.10;;;;;;;;;;5044146;28;20056;-81
2021/12/20 02:27:46;;;;;;;0.57;0.40;;;;;;;;;;5048760;28;20029;-81
2021/12/20 02:30:36;;;;;;;0.20;0.20;;;;;;;;;;5043784;28;20029;-81
2021/12/20 02:38:30;;;;;;;;;;;;;;;;;;5046200;28;20682;-81
2021/12/20 02:41:14;;;;;;;0.30;0.30;;;;;;;;;;5043986;28;19917;-81
2021/12/20 02:43:43;;;;;;;0.85;0.85;;;;;;;;;;5025195;28;20049;-81
2021/12/20 02:46:33;;;;;;;0.35;0.35;;;;;;;;;;5046744;28;20072;-81
2021/12/20 02:48:59;;;;;;;0.38;0.38;;;;;;;;;;5043948;28;20082;-81
2021/12/20 02:51:28;;;;;;;0.30;0.30;;;;;;;;;;5045892;28;20488;-81
2021/12/20 02:53:57;;;;;;;1.35;0.95;;;;;;;;;;5051565;28;20028;-80
2021/12/20 02:56:23;;;;;;;0.82;0.35;;;;;;;;;;5046704;28;20024;-81
2021/12/20 02:58:49;;;;;;;0.10;0.10;;;;;;;;;;5045279;28;20036;-80
2021/12/20 03:01:15;;;;;;;0.75;0.73;;;;;;;;;;5026143;28;20035;-80
2021/12/20 03:03:41;;;;;;;0.75;0.50;;;;;;;;;;5049672;28;20051;-81
2021/12/20 03:06:12;;;;;;;0.80;0.63;;;;;;;;;;5046338;28;20048;-81
2021/12/20 03:08:39;;;;;;;0.20;0.20;;;;;;;;;;5043766;28;20202;-81
2021/12/20 03:11:05;;;;;;;;;;;;;;;;;;5041752;28;20523;-82
2021/12/20 03:13:31;;;;;;;0.20;0.20;;;;;;;;;;5041265;28;19912;-80
2021/12/20 03:15:57;;;;;;;0.20;0.20;;;;;;;;;;5041456;28;20024;-80
2021/12/20 03:18:23;;;;;;;0.10;0.10;;;;;;;;;;5041342;28;20083;-81
2021/12/20 03:20:49;;;;;;;0.30;0.30;;;;;;;;;;5041707;28;20386;-81
2021/12/20 03:23:15;;;;;;;0.10;0.10;;;;;;;;;;5040648;28;20504;-81
2021/12/20 03:25:41;;;;;;;0.20;0.20;;;;;;;;;;5041413;28;20076;-81
2021/12/20 03:28:07;;;;;;;0.20;0.20;;;;;;;;;;5041409;28;20673;-81
2021/12/20 03:30:33;;;;;;;0.20;0.20;;;;;;;;;;5043414;28;20028;-81
2021/12/20 03:33:00;;;;;;;0.20;0.20;;;;;;;;;;5025358;28;20106;-81
2021/12/20 03:35:26;;;;;;;0.20;0.20;;;;;;;;;;5047738;28;20044;-80
2021/12/20 03:37:52;;;;;;;0.20;0.20;;;;;;;;;;5041615;28;20024;-80
2021/12/20 03:40:19;;;;;;;0.22;0.22;;;;;;;;;;5044187;28;20137;-80
2021/12/20 03:42:46;;;;;;;0.35;0.35;;;;;;;;;;5041147;28;20553;-80
2021/12/20 03:45:13;;;;;;;;;;;;;;;;;;5040728;28;20128;-80
2021/12/20 03:47:40;;;;;;;0.20;0.20;;;;;;;;;;5025167;28;19909;-81
2021/12/20 03:50:06;;;;;;;0.20;0.20;;;;;;;;;;5039890;28;20039;-80
2021/12/20 03:52:33;;;;;;;0.20;0.20;;;;;;;;;;5040513;28;20075;-81
2021/12/20 03:55:02;;;;;;;0.30;0.30;;;;;;;;;;5040541;28;20104;-81
2021/12/20 03:57:28;;;;;;;0.20;0.20;;;;;;;;;;5040353;28;20112;-80
2021/12/20 03:59:54;;;;;;;0.13;0.13;;;;;;;;;;5032829;28;20601;-81
2021/12/20 04:02:22;;;;;;;0.20;0.20;;;;;;;;;;5043294;28;20049;-79
2021/12/20 04:04:48;;;;;;;0.30;0.30;;;;;;;;;;5042370;28;20039;-80
2021/12/20 04:07:14;;;;;;;0.20;0.20;;;;;;;;;;5041284;28;20180;-80
2021/12/20 04:09:40;;;;;;;0.60;0.60;;;;;;;;;;5034336;28;20041;-81
2021/12/20 04:12:06;;;;;;;0.43;0.43;;;;;;;;;;5039416;28;20043;-81
2021/12/20 04:14:32;;;;;;;0.45;0.45;;;;;;;;;;5039582;28;20024;-79
2021/12/20 04:16:58;;;;;;;0.20;0.20;;;;;;;;;;5040395;28;20033;-82
2021/12/20 04:19:24;;;;;;;1.25;0.65;;;;;;;;;;5042009;28;20033;-80
2021/12/20 04:21:50;;;;;;;0.10;0.10;;;;;;;;;;5045044;28;20041;-81
2021/12/20 04:24:16;;;;;;;0.27;0.27;;;;;;;;;;5045538;28;20033;-83
2021/12/20 04:26:42;;;;;;;0.20;0.20;;;;;;;;;;5049501;28;20040;-80
2021/12/20 04:29:09;;;;;;;0.10;0.10;;;;;;;;;;5046508;28;20700;-82
2021/12/20 04:31:36;;;;;;;0.10;0.10;;;;;;;;;;5043427;28;20029;-82
2021/12/20 04:34:02;;;;;;;0.38;0.38;;;;;;;;;;5042385;28;20025;-82
2021/12/20 04:36:29;;;;;;;0.65;0.65;;;;;;;;;;5042942;28;20021;-81
2021/12/20 04:38:55;;;;;;;;;;;;;;;;;;5042989;28;20526;-81
2021/12/20 04:41:21;;;;;;;0.40;0.40;;;;;;;;;;5042359;28;20390;-80
2021/12/20 04:43:47;;;;;;;0.30;0.30;;;;;;;;;;5039151;28;20542;-81
2021/12/20 04:46:13;;;;;;;0.40;0.40;;;;;;;;;;5038752;28;20523;-81
2021/12/20 04:48:39;;;;;;;0.20;0.20;;;;;;;;;;5039669;28;20393;-81
2021/12/20 04:51:05;;;;;;;1.08;1.08;;;;;;;;;;5038950;28;20111;-78
2021/12/20 04:53:31;;;;;;;0.43;0.43;;;;;;;;;;5039301;28;20025;-78
2021/12/20 04:55:57;;;;;;;0.30;0.30;;;;;;;;;;5038762;28;20033;-82
2021/12/20 04:58:23;;;;;;;0.20;0.20;;;;;;;;;;5038824;28;20036;-82
2021/12/20 05:00:49;;;;;;;0.20;0.20;;;;;;;;;;5040844;28;20120;-82
2021/12/20 05:03:16;;;;;;;0.20;0.20;;;;;;;;;;5047955;28;20052;-83
2021/12/20 05:05:42;;;;;;;0.27;0.27;;;;;;;;;;5039398;28;20411;-82
2021/12/20 05:08:10;;;;;;;0.73;0.73;;;;;;;;;;5043037;28;20020;-81
2021/12/20 05:10:39;;;;;;;0.70;0.70;;;;;;;;;;5043036;28;20106;-81
2021/12/20 05:13:07;;;;;;;0.10;0.10;;;;;;;;;;5044356;28;20488;-80
2021/12/20 05:15:34;;;;;;;0.50;0.50;;;;;;;;;;5045543;28;20033;-80
2021/12/20 05:18:00;;;;;;;0.30;0.30;;;;;;;;;;5048689;28;20044;-80
2021/12/20 05:20:27;;;;;;;0.10;0.10;;;;;;;;;;5049661;28;20109;-80
2021/12/20 05:22:54;;;;;;;0.45;0.40;;;;;;;;;;5046390;28;20178;-80
2021/12/20 05:25:20;;;;;;;0.70;0.70;;;;;;;;;;5045173;28;20135;-80
2021/12/20 05:27:46;;;;;;;0.20;0.20;;;;;;;;;;5055935;28;20040;-79
2021/12/20 05:30:14;;;;;;;0.10;0.10;;;;;;;;;;5049517;28;20140;-80
2021/12/20 05:32:40;;;;;;;0.10;0.10;;;;;;;;;;5047327;28;20017;-80
2021/12/20 05:35:07;;;;;;;0.20;0.20;;;;;;;;;;5048108;28;20048;-80
2021/12/20 05:37:33;;;;;;;0.30;0.30;;;;;;;;;;5045192;28;20029;-80
2021/12/20 05:39:59;;;;;;;0.10;0.10;;;;;;;;;;5045844;28;20037;-80
2021/12/20 05:42:25;;;;;;;0.70;0.55;;;;;;;;;;5046648;28;20278;-80
2021/12/20 05:44:51;;;;;;;0.10;0.10;;;;;;;;;;5049558;28;20693;-81
2021/12/20 05:47:22;;;;;;;0.10;0.10;;;;;;;;;;5049797;28;20033;-79
2021/12/20 05:49:48;;;;;;;0.32;0.32;;;;;;;;;;5047797;28;20033;-79
2021/12/20 05:52:14;;;;;;;0.22;0.22;;;;;;;;;;5045579;28;20037;-79
2021/12/20 05:54:40;;;;;;;0.13;0.13;;;;;;;;;;5041142;28;20060;-80
2021/12/20 05:57:06;;;;;;;0.20;0.20;;;;;;;;;;5042182;28;20565;-79
2021/12/20 05:59:32;;;;;;;0.10;0.10;;;;;;;;;;5043055;28;20025;-81
2021/12/20 06:01:58;;;;;;;0.10;0.10;;;;;;;;;;5043440;28;20509;-80
2021/12/20 06:04:24;;;;;;;0.30;0.30;;;;;;;;;;5043631;28;20025;-80
2021/12/20 06:06:50;;;;;;;0.45;0.45;;;;;;;;;;5033187;28;20044;-82
2021/12/20 06:09:16;;;;;;;0.10;0.10;;;;;;;;;;5026558;28;20033;-82
2021/12/20 06:11:42;;;;;;;0.10;0.10;;;;;;;;;;5042442;28;20029;-81
2021/12/20 06:14:08;;;;;;;0.15;0.15;;;;;;;;;;5041812;28;20029;-81
2021/12/20 06:16:34;;;;;;;0.30;0.30;;;;;;;;;;5044257;28;20017;-87
2021/12/20 06:19:01;;;;;;;0.20;0.20;;;;;;;;;;5042229;28;20033;-83
2021/12/20 06:21:27;;;;;;;0.10;0.10;;;;;;;;;;5041673;28;20039;-82
2021/12/20 06:23:53;;;;;;;0.30;0.30;;;;;;;;;;5042378;28;20029;-83
2021/12/20 06:26:23;;;;;;;0.10;0.10;;;;;;;;;;5041321;28;20052;-83
2021/12/20 06:28:49;;;;;;;0.20;0.20;;;;;;;;;;5041050;28;20025;-83
2021/12/20 06:31:15;;;;;;;0.20;0.20;;;;;;;;;;5043834;28;20045;-87
2021/12/20 06:33:41;;;;;;;0.10;0.10;;;;;;;;;;5044085;28;20041;-85
2021/12/20 06:36:07;;;;;;;0.40;0.40;;;;;;;;;;5042985;28;20025;-85
2021/12/20 06:38:34;;;;;;;0.20;0.20;;;;;;;;;;5049486;28;20058;-83
2021/12/20 06:41:01;;;;;;;0.50;0.50;;;;;;;;;;5041325;28;20622;-86
2021/12/20 06:43:27;;;;;;;0.43;0.43;;;;;;;;;;5044387;28;20052;-86
2021/12/20 06:45:53;;;;;;;0.30;0.30;;;;;;;;;;5050414;28;20037;-85
2021/12/20 06:48:19;;;;;;;0.30;0.30;;;;;;;;;;5048929;28;20090;-82
2021/12/20 06:50:45;;;;;;;0.70;0.70;;;;;;;;;;5048772;28;20098;-81
2021/12/20 06:53:11;;;;;;;0.50;0.50;;;;;;;;;;5048553;28;20484;-81
2021/12/20 06:55:37;;;;;;;0.10;0.10;;;;;;;;;;5045801;28;20671;-81
2021/12/20 06:58:04;;;;;;;0.85;0.85;;;;;;;;;;5047377;28;20040;-82
2021/12/20 07:00:30;;;;;;;0.20;0.20;;;;;;;;;;5049712;28;20052;-82
2021/12/20 07:02:56;;;;;;;0.20;0.20;;;;;;;;;;5048153;28;20029;-82
2021/12/20 07:05:23;;;;;;;0.10;0.10;;;;;;;;;;5047986;28;20566;-82
2021/12/20 07:07:49;;;;;;;0.10;0.10;;;;;;;;;;5045843;28;20395;-82
2021/12/20 07:10:15;;;;;;;0.47;0.47;;;;;;;;;;5044798;28;20041;-81
2021/12/20 07:12:41;;;;;;;0.20;0.20;;;;;;;;;;5049904;28;20120;-82
2021/12/20 07:15:12;;;;;;;0.53;0.53;;;;;;;;;;5048053;28;20065;-81
2021/12/20 07:17:39;;;;;;;0.10;0.10;;;;;;;;;;5031469;28;20319;-81
2021/12/20 07:20:06;;;;;;;0.10;0.10;;;;;;;;;;5037527;28;20082;-82
2021/12/20 07:22:32;;;;;;;0.10;0.10;;;;;;;;;;5043769;28;20947;-82
2021/12/20 07:24:58;;;;;;;0.13;0.13;;;;;;;;;;5043604;28;20059;-80
2021/12/20 07:27:24;;;;;;;0.22;0.22;;;;;;;;;;5047816;28;20024;-83
2021/12/20 07:29:50;;;;;;;0.10;0.10;;;;;;;;;;5048012;28;20033;-81
2021/12/20 07:32:16;;;;;;;0.20;0.20;;;;;;;;;;5046486;28;20521;-84
2021/12/20 07:34:42;;;;;;;0.40;0.40;;;;;;;;;;5045841;28;20098;-81
2021/12/20 07:37:08;;;;;;;0.30;0.30;;;;;;;;;;5045403;28;20036;-79
2021/12/20 07:39:35;;;;;;;0.20;0.20;;;;;;;;;;5047055;28;20264;-81
2021/12/20 07:42:01;;;;;;;0.20;0.20;;;;;;;;;;5046721;28;20428;-81
2021/12/20 07:44:27;;;;;;;0.10;0.10;;;;;;;;;;5045984;28;20052;-79
2021/12/20 07:46:53;;;;;;;0.17;0.17;;;;;;;;;;5044786;28;20451;-79
2021/12/20 07:49:19;;;;;;;0.50;0.50;;;;;;;;;;5043887;28;20034;-83
2021/12/20 07:51:46;;;;;;;0.10;0.10;;;;;;;;;;5046276;28;20036;-81
2021/12/20 07:54:12;;;;;;;0.20;0.20;;;;;;;;;;5044557;28;20025;-81
2021/12/20 07:56:38;;;;;;;0.10;0.10;;;;;;;;;;5042423;28;20052;-81
2021/12/20 07:59:04;;;;;;;0.20;0.20;;;;;;;;;;5044621;28;20040;-81
2021/12/20 08:01:31;;;;;;;0.52;0.47;;;;;;;;;;5042624;28;20286;-81
2021/12/20 08:03:57;;;;;;;0.63;0.63;;;;;;;;;;5043010;28;20060;-82
2021/12/20 08:06:23;;;;;;;0.20;0.20;;;;;;;;;;5039664;28;20051;-82
2021/12/20 08:08:49;;;;;;;0.30;0.30;;;;;;;;;;5044601;28;20575;-80
2021/12/20 08:11:16;;;;;;;0.20;0.20;;;;;;;;;;5042952;28;20624;-80
2021/12/20 08:13:45;;;;;;;0.32;0.32;;;;;;;;;;5040123;28;20025;-84
2021/12/20 08:16:14;;;;;;;0.10;0.10;;;;;;;;;;5036216;28;20484;-84
2021/12/20 08:18:44;;;;;;;0.52;0.52;;;;;;;;;;5039428;28;20477;-84
2021/12/20 08:21:11;;;;;;;0.40;0.40;;;;;;;;;;5049436;28;20036;-84
2021/12/20 08:23:37;;;;;;;0.40;0.40;;;;;;;;;;5046096;28;20025;-84
2021/12/20 08:26:03;;;;;;;0.43;0.43;;;;;;;;;;5041119;28;20041;-85
2021/12/20 08:28:30;;;;;;;0.30;0.30;;;;;;;;;;5054074;28;20037;-84
2021/12/20 08:30:56;;;;;;;0.30;0.30;;;;;;;;;;5037081;28;20272;-84
2021/12/20 08:33:22;;;;;;;0.17;0.17;;;;;;;;;;5030125;28;20102;-84
2021/12/20 08:35:49;;;;;;;0.10;0.10;;;;;;;;;;5045876;28;20055;-84
2021/12/20 08:38:18;;;;;;;0.15;0.15;;;;;;;;;;5036314;28;20025;-84
2021/12/20 08:40:45;;;;;;;0.17;0.17;;;;;;;;;;5043056;28;20076;-84
2021/12/20 08:43:11;;;;;;;0.10;0.10;;;;;;;;;;5034597;28;20047;-84
2021/12/20 08:45:37;;;;;;;0.17;0.17;;;;;;;;;;5057191;28;20580;-84
2021/12/20 08:48:03;;;;;;;0.17;0.17;;;;;;;;;;5044443;28;20037;-84
2021/12/20 08:50:29;;;;;;;0.10;0.10;;;;;;;;;;5045186;28;20415;-84
2021/12/20 08:52:56;;;;;;;0.10;0.10;;;;;;;;;;5044343;28;20034;-84
2021/12/20 08:55:23;;;;;;;0.30;0.30;;;;;;;;;;5041193;28;20025;-85
2021/12/20 08:57:49;;;;;;;0.28;0.28;;;;;;;;;;5058977;28;20032;-84
2021/12/20 09:00:26;;;;;;;0.10;0.10;;;;;;;;;;5042777;28;20037;-84
2021/12/20 09:02:52;;;;;;;0.28;0.28;;;;;;;;;;5049969;28;20028;-85
2021/12/20 09:05:19;;;;;;;0.30;0.30;;;;;;;;;;5052702;28;20089;-84
2021/12/20 09:07:45;;;;;;;0.20;0.20;;;;;;;;;;5041928;28;20033;-85
2021/12/20 09:10:12;;;;;;;1.80;0.93;;;;;;;;;;5043682;28;20480;-84
2021/12/20 09:12:38;;;;;;;0.13;0.13;;;;;;;;;;5023737;28;20036;-85
2021/12/20 09:15:05;;;;;;;0.10;0.10;;;;;;;;;;5041848;28;20099;-85
2021/12/20 09:17:31;;;;;;;0.10;0.10;;;;;;;;;;5046361;28;20021;-85
2021/12/20 09:19:57;;;;;;;0.67;0.67;;;;;;;;;;5044030;28;20025;-85
2021/12/20 09:22:29;;;;;;;0.20;0.20;;;;;;;;;;5040837;28;20083;-85
2021/12/20 09:24:56;;;;;;;0.10;0.10;;;;;;;;;;5047841;28;20032;-86
2021/12/20 09:27:22;;;;;;;0.30;0.30;;;;;;;;;;5042528;28;20037;-85
2021/12/20 09:29:48;;;;;;;1.65;0.43;;;;;;;;;;5033564;28;20526;-85
2021/12/20 09:32:14;;;;;;;0.10;0.10;;;;;;;;;;5041640;28;20462;-85
2021/12/20 09:34:40;;;;;;;0.30;0.30;;;;;;;;;;5041974;28;20033;-84
2021/12/20 09:37:08;;;;;;;0.10;0.10;;;;;;;;;;5037465;28;20268;-85
2021/12/20 09:39:39;;;;;;;0.30;0.30;;;;;;;;;;5039398;28;20025;-83
2021/12/20 09:42:06;;;;;;;0.32;0.32;;;;;;;;;;5051211;28;20028;-83
2021/12/20 09:44:32;;;;;;;;;;;;;;;;;;5035623;28;20145;-84
2021/12/20 09:46:59;;;;;;;0.30;0.30;;;;;;;;;;5034519;28;19917;-84
2021/12/20 09:49:25;;;;;;;;;;;;;;;;;;5039433;28;20866;-84
2021/12/20 09:51:52;;;;;;;0.30;0.30;;;;;;;;;;5034237;28;19953;-84
2021/12/20 09:54:18;;;;;;;;;;;;;;;;;;5045645;28;20025;-84
2021/12/20 09:56:44;;;;;;;0.20;0.20;;;;;;;;;;5039470;28;19920;-84
2021/12/20 09:59:12;;;;;;;0.17;0.17;;;;;;;;;;5042790;28;20028;-84
2021/12/20 10:01:39;;;;;;;0.70;0.40;;;;;;;;;;5046096;28;20033;-83
2021/12/20 10:04:05;;;;;;;0.15;0.15;;;;;;;;;;5043343;28;20025;-83
2021/12/20 10:06:31;;;;;;;0.10;0.10;;;;;;;;;;5046345;28;20718;-84
2021/12/20 10:09:04;;;;;;;0.30;0.30;;;;;;;;;;5045576;28;20412;-83
2021/12/20 10:11:31;;;;;;;0.30;0.30;;;;;;;;;;5049312;28;20039;-83
2021/12/20 10:14:06;;;;;;;0.13;0.13;;;;;;;;;;5038254;28;20032;-83
2021/12/20 10:16:34;;;;;;;0.10;0.10;;;;;;;;;;5042168;28;20058;-83
2021/12/20 10:19:00;;;;;;;0.63;0.57;;;;;;;;;;5046881;28;20032;-84
2021/12/20 10:21:37;;;;;;;0.10;0.10;;;;;;;;;;5041391;28;20084;-85
2021/12/20 10:24:03;;;;;;;;;;;;;;;;;;5050112;28;20037;-85
2021/12/20 10:26:29;;;;;;;0.10;0.10;;;;;;;;;;5048089;28;19921;-83
2021/12/20 10:28:55;;;;;;;0.68;0.68;;;;;;;;;;5038305;28;20033;-85
2021/12/20 10:31:23;;;;;;;0.45;0.30;;;;;;;;;;5045736;28;20052;-86
2021/12/20 10:33:56;;;;;;;0.50;0.50;;;;;;;;;;5039451;28;20456;-85
2021/12/20 10:36:23;;;;;;;0.22;0.22;;;;;;;;;;5046871;28;20032;-83
2021/12/20 10:38:56;;;;;;;0.20;0.20;;;;;;;;;;5046437;28;20044;-85
2021/12/20 10:41:34;;;;;;;0.10;0.10;;;;;;;;;;5037783;28;20500;-85
2021/12/20 10:44:03;;;;;;;0.10;0.10;;;;;;;;;;5039232;28;20068;-85
2021/12/20 10:46:36;;;;;;;0.20;0.20;;;;;;;;;;5040174;28;20111;-83
2021/12/20 10:49:04;;;;;;;0.10;0.10;;;;;;;;;;5042321;28;20025;-84
2021/12/20 10:51:32;;;;;;;0.13;0.13;;;;;;;;;;5041712;28;20166;-85
2021/12/20 10:54:07;;;;;;;0.10;0.10;;;;;;;;;;5040025;28;20081;-85
2021/12/20 10:56:35;;;;;;;0.10;0.10;;;;;;;;;;5041176;28;20025;-82
2021/12/20 10:59:01;;;;;;;0.50;0.50;;;;;;;;;;5040273;28;20108;-85
2021/12/20 11:04:26;;;;;;;0.10;0.10;;;;;;;;;;5042526;28;20664;-85
2021/12/20 11:09:23;;;;;;;0.20;0.20;;;;;;;;;;5044414;28;20071;-85
2021/12/20 11:11:50;;;;;;;0.10;0.10;;;;;;;;;;5036655;28;20040;-85
2021/12/20 11:14:17;;;;;;;0.20;0.20;;;;;;;;;;5043153;28;20031;-85
2021/12/20 11:16:44;;;;;;;0.52;0.40;;;;;;;;;;5042366;28;20028;-85
2021/12/20 11:19:18;;;;;;;0.10;0.10;;;;;;;;;;5043150;28;20032;-86
2021/12/20 11:21:49;;;;;;;0.20;0.20;;;;;;;;;;5041760;28;20075;-82
2021/12/20 11:24:19;;;;;;;0.73;0.73;;;;;;;;;;5045376;28;20033;-85
2021/12/20 11:26:45;;;;;;;0.20;0.20;;;;;;;;;;5046075;28;20041;-83
2021/12/20 11:29:12;;;;;;;0.10;0.10;;;;;;;;;;5048048;28;20822;-86
2021/12/20 11:31:38;;;;;;;0.10;0.10;;;;;;;;;;5043069;28;20373;-86
2021/12/20 11:34:05;;;;;;;0.38;0.38;;;;;;;;;;5046267;28;20025;-83
2021/12/20 11:36:31;;;;;;;0.10;0.10;;;;;;;;;;5048403;28;20059;-83
2021/12/20 11:39:00;;;;;;;0.10;0.10;;;;;;;;;;5047476;28;20037;-84
2021/12/20 11:41:27;;;;;;;0.30;0.30;;;;;;;;;;5048304;28;20032;-85
2021/12/20 11:43:54;;;;;;;1.90;0.45;;;;;;;;;;5040491;28;20532;-86
2021/12/20 11:46:22;;;;;;;0.10;0.10;;;;;;;;;;5045434;28;20585;-86
2021/12/20 11:48:50;;;;;;;0.22;0.22;;;;;;;;;;5047922;28;20036;-85
2021/12/20 11:51:16;;;;;;;0.35;0.22;;;;;;;;;;5043781;28;20865;-85
2021/12/20 11:53:42;;;;;;;0.15;0.15;;;;;;;;;;5043911;28;20029;-82
2021/12/20 11:56:08;;;;;;;0.10;0.10;;;;;;;;;;5039902;28;20028;-85
2021/12/20 11:58:36;;;;;;;0.57;0.57;;;;;;;;;;5040437;28;20067;-83
2021/12/20 12:01:07;;;;;;;0.10;0.10;;;;;;;;;;5043454;28;20686;-85
2021/12/20 12:03:39;;;;;;;1.35;0.63;;;;;;;;;;5045390;28;20079;-82
2021/12/20 12:06:10;;;;;;;0.20;0.20;;;;;;;;;;5028058;28;20136;-82
2021/12/20 12:08:42;;;;;;;0.17;0.17;;;;;;;;;;5043835;28;20052;-82
2021/12/20 12:11:09;;;;;;;0.10;0.10;;;;;;;;;;5044076;28;20052;-82
2021/12/20 12:14:01;;;;;;;0.20;0.20;;;;;;;;;;5054692;28;20066;-85
2021/12/20 12:16:45;;;;;;;0.10;0.10;;;;;;;;;;5029718;28;20041;-83
2021/12/20 12:19:11;;;;;;;0.30;0.30;;;;;;;;;;5043278;28;20027;-85
2021/12/20 12:21:39;;;;;;;0.40;0.40;;;;;;;;;;5044691;28;20500;-83
2021/12/20 12:24:09;;;;;;;0.13;0.13;;;;;;;;;;5044726;28;20107;-84
2021/12/20 12:26:37;;;;;;;0.45;0.45;;;;;;;;;;5043874;28;20060;-85
2021/12/20 12:29:04;;;;;;;0.38;0.38;;;;;;;;;;5042071;28;20030;-85
2021/12/20 12:31:49;;;;;;;0.20;0.20;;;;;;;;;;5051269;28;20033;-83
2021/12/20 12:34:16;;;;;;;0.00;0.00;;;;;;;;;;5042817;28;20083;-83
2021/12/20 12:36:42;;;;;;;0.13;0.13;;;;;;;;;;5045338;28;20029;-82
2021/12/20 12:39:08;;;;;;;0.10;0.10;;;;;;;;;;5046773;28;20033;-85
2021/12/20 12:41:47;;;;;;;0.10;0.10;;;;;;;;;;5047568;28;20537;-85
2021/12/20 12:44:16;;;;;;;0.20;0.20;;;;;;;;;;5042102;28;20590;-82
2021/12/20 12:46:45;;;;;;;0.08;0.08;;;;;;;;;;5042834;28;20057;-83
2021/12/20 12:49:25;;;;;;;0.20;0.20;;;;;;;;;;5055628;28;20024;-82
2021/12/20 12:51:59;;;;;;;0.10;0.10;;;;;;;;;;5040594;28;20104;-83
2021/12/20 12:54:34;;;;;;;0.10;0.10;;;;;;;;;;5043138;28;20044;-85
2021/12/20 12:57:09;;;;;;;0.20;0.20;;;;;;;;;;5034196;28;20508;-85
2021/12/20 12:59:42;;;;;;;0.10;0.10;;;;;;;;;;5034035;28;20563;-83
2021/12/20 13:02:13;;;;;;;0.63;0.50;;;;;;;;;;5037665;28;20040;-83
2021/12/20 13:04:52;;;;;;;0.20;0.20;;;;;;;;;;5036734;28;20037;-82
2021/12/20 13:07:19;;;;;;;0.10;0.10;;;;;;;;;;5035815;28;20043;-83
2021/12/20 13:09:46;;;;;;;0.10;0.10;;;;;;;;;;5026548;28;20075;-83
2021/12/20 13:12:18;;;;;;;0.05;0.05;;;;;;;;;;5038371;28;20033;-82
2021/12/20 13:15:04;;;;;;;0.43;0.43;;;;;;;;;;5032092;28;20746;-85
2021/12/20 13:17:32;;;;;;;0.10;0.10;;;;;;;;;;5028032;28;20086;-85
2021/12/20 13:20:20;;;;;;;0.10;0.10;;;;;;;;;;5035179;28;20024;-82
2021/12/20 13:22:56;;;;;;;0.50;0.50;;;;;;;;;;5029843;28;20094;-83
2021/12/20 13:25:39;;;;;;;0.10;0.10;;;;;;;;;;5051097;28;20041;-83
2021/12/20 13:28:06;;;;;;;0.10;0.10;;;;;;;;;;5040411;28;20025;-85
2021/12/20 13:30:33;;;;;;;0.35;0.35;;;;;;;;;;5043634;28;20088;-82
2021/12/20 13:33:00;;;;;;;0.13;0.13;;;;;;;;;;5043111;28;20060;-83
2021/12/20 13:35:28;;;;;;;0.10;0.10;;;;;;;;;;5042883;28;20742;-82
2021/12/20 13:38:09;;;;;;;0.10;0.10;;;;;;;;;;5042207;28;20381;-83
2021/12/20 13:40:43;;;;;;;0.55;0.55;;;;;;;;;;5045307;28;20500;-83
2021/12/20 13:43:12;;;;;;;0.20;0.20;;;;;;;;;;5047068;28;20036;-83
2021/12/20 13:45:38;;;;;;;0.17;0.17;;;;;;;;;;5043034;28;20099;-83
2021/12/20 13:48:08;;;;;;;0.20;0.20;;;;;;;;;;5040225;28;20596;-83
2021/12/20 13:50:34;;;;;;;1.80;1.17;;;;;;;;;;5042932;28;20060;-83
2021/12/20 13:53:00;;;;;;;0.30;0.30;;;;;;;;;;5045090;28;20064;-84
2021/12/20 13:55:26;;;;;;;0.40;0.40;;;;;;;;;;5046522;28;20809;-82
2021/12/20 13:57:52;;;;;;;0.40;0.40;;;;;;;;;;5030305;28;20032;-85
2021/12/20 14:00:19;;;;;;;0.20;0.20;;;;;;;;;;5047020;28;20170;-83
2021/12/20 14:02:46;;;;;;;0.30;0.30;;;;;;;;;;5045549;28;20117;-83
2021/12/20 14:05:13;;;;;;;0.40;0.40;;;;;;;;;;5046171;28;20114;-83
2021/12/20 14:07:42;;;;;;;;;;;;;;;;;;5045235;28;20029;-83
2021/12/20 14:10:10;;;;;;;0.25;0.25;;;;;;;;;;5046030;28;19915;-82
2021/12/20 14:12:49;;;;;;;0.15;0.15;;;;;;;;;;5037709;28;20124;-82
2021/12/20 14:15:17;;;;;;;0.20;0.20;;;;;;;;;;5045945;28;20504;-83
2021/12/20 14:17:54;;;;;;;0.10;0.10;;;;;;;;;;5046081;28;20121;-85
2021/12/20 14:20:20;;;;;;;0.10;0.10;;;;;;;;;;5043524;28;20020;-87
2021/12/20 14:22:50;;;;;;;0.15;0.15;;;;;;;;;;5046559;28;20041;-85
2021/12/20 14:25:16;;;;;;;0.20;0.20;;;;;;;;;;5043389;28;20110;-84
2021/12/20 14:27:43;;;;;;;0.40;0.40;;;;;;;;;;5047651;28;20396;-84
2021/12/20 14:30:22;;;;;;;0.28;0.28;;;;;;;;;;5047407;28;20033;-84
2021/12/20 14:32:48;;;;;;;0.20;0.20;;;;;;;;;;5042331;28;20037;-86
2021/12/20 14:35:26;;;;;;;0.45;0.45;;;;;;;;;;5039036;28;20029;-84
2021/12/20 14:37:53;;;;;;;0.10;0.10;;;;;;;;;;5037489;28;20028;-87
2021/12/20 14:40:38;;;;;;;0.20;0.20;;;;;;;;;;5059545;28;20118;-86
2021/12/20 14:43:06;;;;;;;0.20;0.20;;;;;;;;;;5058011;28;20044;-84
2021/12/20 14:45:33;;;;;;;0.10;0.10;;;;;;;;;;5048951;28;20029;-84
2021/12/20 14:48:20;;;;;;;8.90;0.40;;;;;;;;;;5047025;28;20037;-84
2021/12/20 14:50:48;;;;;;;0.25;0.25;;;;;;;;;;5046882;28;20040;-83
2021/12/20 14:53:15;;;;;;;1.20;0.60;;;;;;;;;;5047554;28;20029;-84
2021/12/20 14:55:41;;;;;;;0.13;0.13;;;;;;;;;;5045669;28;20081;-84
2021/12/20 14:58:07;;;;;;;0.30;0.30;;;;;;;;;;5046173;28;20172;-86
2021/12/20 15:00:34;;;;;;;0.10;0.10;;;;;;;;;;5048794;28;20520;-87
2021/12/20 15:03:00;;;;;;;0.20;0.20;;;;;;;;;;5044569;28;20641;-87
2021/12/20 15:05:26;;;;;;;0.10;0.10;;;;;;;;;;5034283;28;20033;-86